sensor_id;sensor_type;location;lat;lon;timestamp;P1;durP1;ratioP1;P2;durP2;ratioP2
69769;SDS011;57282;52.514;13.458;2023-03-01T00:02:02;15.80;;;8.13;;
69769;SDS011;57282;52.514;13.458;2023-03-01T00:04:29;17.70;;;7.88;;
69769;SDS011;57282;52.514;13.458;2023-03-01T00:06:56;14.63;;;7.20;;
69769;SDS011;57282;52.514;13.458;2023-03-01T00:09:22;15.98;;;8.63;;
69769;SDS011;57282;52.514;13.458;2023-03-01T00:11:49;17.05;;;8.18;;
69769;SDS011;57282;52.514;13.458;2023-03-01T00:14:17;17.00;;;8.25;;
69769;SDS011;57282;52.514;13.458;2023-03-01T00:16:43;15.68;;;7.65;;
69769;SDS011;57282;52.514;13.458;2023-03-01T00:19:11;15.10;;;7.90;;
69769;SDS011;57282;52.514;13.458;2023-03-01T00:21:38;18.05;;;7.78;;
69769;SDS011;57282;52.514;13.458;2023-03-01T00:24:05;13.65;;;6.78;;
69769;SDS011;57282;52.514;13.458;2023-03-01T00:26:32;13.95;;;7.18;;
69769;SDS011;57282;52.514;13.458;2023-03-01T00:28:59;16.45;;;7.40;;
69769;SDS011;57282;52.514;13.458;2023-03-01T00:31:28;15.57;;;7.60;;
69769;SDS011;57282;52.514;13.458;2023-03-01T00:33:55;15.25;;;8.18;;
69769;SDS011;57282;52.514;13.458;2023-03-01T00:36:23;13.40;;;7.38;;
69769;SDS011;57282;52.514;13.458;2023-03-01T00:38:49;14.63;;;7.07;;
69769;SDS011;57282;52.514;13.458;2023-03-01T00:41:16;14.70;;;7.15;;
69769;SDS011;57282;52.514;13.458;2023-03-01T00:43:43;15.93;;;7.23;;
69769;SDS011;57282;52.514;13.458;2023-03-01T00:46:10;15.65;;;7.70;;
69769;SDS011;57282;52.514;13.458;2023-03-01T00:48:39;14.30;;;7.75;;
69769;SDS011;57282;52.514;13.458;2023-03-01T00:51:06;14.00;;;7.47;;
69769;SDS011;57282;52.514;13.458;2023-03-01T00:53:33;12.57;;;6.82;;
69769;SDS011;57282;52.514;13.458;2023-03-01T00:56:00;13.97;;;7.10;;
69769;SDS011;57282;52.514;13.458;2023-03-01T00:58:27;14.60;;;6.93;;
69769;SDS011;57282;52.514;13.458;2023-03-01T01:00:53;14.65;;;7.45;;
69769;SDS011;57282;52.514;13.458;2023-03-01T01:03:20;14.88;;;7.32;;
69769;SDS011;57282;52.514;13.458;2023-03-01T01:05:48;14.38;;;7.32;;
69769;SDS011;57282;52.514;13.458;2023-03-01T01:08:15;14.33;;;6.37;;
69769;SDS011;57282;52.514;13.458;2023-03-01T01:10:43;13.05;;;7.22;;
69769;SDS011;57282;52.514;13.458;2023-03-01T01:13:09;14.27;;;7.00;;
69769;SDS011;57282;52.514;13.458;2023-03-01T01:15:36;14.25;;;7.43;;
69769;SDS011;57282;52.514;13.458;2023-03-01T01:18:02;12.52;;;7.18;;
69769;SDS011;57282;52.514;13.458;2023-03-01T01:20:29;12.93;;;6.63;;
69769;SDS011;57282;52.514;13.458;2023-03-01T01:22:57;12.50;;;6.97;;
69769;SDS011;57282;52.514;13.458;2023-03-01T01:25:23;13.40;;;6.53;;
69769;SDS011;57282;52.514;13.458;2023-03-01T01:27:50;13.82;;;7.28;;
69769;SDS011;57282;52.514;13.458;2023-03-01T01:30:17;14.73;;;7.13;;
69769;SDS011;57282;52.514;13.458;2023-03-01T01:32:44;11.27;;;6.63;;
69769;SDS011;57282;52.514;13.458;2023-03-01T01:35:10;14.30;;;7.60;;
69769;SDS011;57282;52.514;13.458;2023-03-01T01:37:37;14.45;;;6.68;;
69769;SDS011;57282;52.514;13.458;2023-03-01T01:40:05;13.98;;;8.15;;
69769;SDS011;57282;52.514;13.458;2023-03-01T01:42:32;13.55;;;7.05;;
69769;SDS011;57282;52.514;13.458;2023-03-01T01:47:43;15.07;;;6.88;;
69769;SDS011;57282;52.514;13.458;2023-03-01T01:50:14;13.30;;;6.55;;
69769;SDS011;57282;52.514;13.458;2023-03-01T01:52:44;12.10;;;6.80;;
69769;SDS011;57282;52.514;13.458;2023-03-01T01:55:14;14.07;;;6.90;;
69769;SDS011;57282;52.514;13.458;2023-03-01T01:57:43;12.80;;;7.20;;
69769;SDS011;57282;52.514;13.458;2023-03-01T02:00:12;12.63;;;6.75;;
69769;SDS011;57282;52.514;13.458;2023-03-01T02:02:38;12.93;;;6.78;;
69769;SDS011;57282;52.514;13.458;2023-03-01T02:05:06;11.80;;;6.70;;
69769;SDS011;57282;52.514;13.458;2023-03-01T02:07:36;13.85;;;7.50;;
69769;SDS011;57282;52.514;13.458;2023-03-01T02:10:04;15.33;;;7.30;;
69769;SDS011;57282;52.514;13.458;2023-03-01T02:12:32;12.70;;;6.20;;
69769;SDS011;57282;52.514;13.458;2023-03-01T02:15:00;11.70;;;6.53;;
69769;SDS011;57282;52.514;13.458;2023-03-01T02:17:26;11.93;;;6.57;;
69769;SDS011;57282;52.514;13.458;2023-03-01T02:19:57;13.40;;;6.72;;
69769;SDS011;57282;52.514;13.458;2023-03-01T02:22:27;12.13;;;6.93;;
69769;SDS011;57282;52.514;13.458;2023-03-01T02:24:59;13.75;;;7.15;;
69769;SDS011;57282;52.514;13.458;2023-03-01T02:27:29;13.52;;;6.60;;
69769;SDS011;57282;52.514;13.458;2023-03-01T02:29:59;11.98;;;5.80;;
69769;SDS011;57282;52.514;13.458;2023-03-01T02:32:26;12.32;;;6.68;;
69769;SDS011;57282;52.514;13.458;2023-03-01T02:34:51;12.20;;;6.43;;
69769;SDS011;57282;52.514;13.458;2023-03-01T02:37:19;13.23;;;6.70;;
69769;SDS011;57282;52.514;13.458;2023-03-01T02:39:50;12.88;;;6.63;;
69769;SDS011;57282;52.514;13.458;2023-03-01T02:42:22;13.10;;;6.27;;
69769;SDS011;57282;52.514;13.458;2023-03-01T02:44:50;12.60;;;6.55;;
69769;SDS011;57282;52.514;13.458;2023-03-01T02:47:17;10.88;;;5.78;;
69769;SDS011;57282;52.514;13.458;2023-03-01T02:49:44;11.38;;;6.20;;
69769;SDS011;57282;52.514;13.458;2023-03-01T02:52:15;14.18;;;6.50;;
69769;SDS011;57282;52.514;13.458;2023-03-01T02:54:43;11.20;;;6.37;;
69769;SDS011;57282;52.514;13.458;2023-03-01T02:57:13;11.80;;;6.72;;
69769;SDS011;57282;52.514;13.458;2023-03-01T02:59:39;12.00;;;6.10;;
69769;SDS011;57282;52.514;13.458;2023-03-01T03:02:07;12.30;;;6.00;;
69769;SDS011;57282;52.514;13.458;2023-03-01T03:04:35;11.90;;;6.53;;
69769;SDS011;57282;52.514;13.458;2023-03-01T03:07:02;11.63;;;6.20;;
69769;SDS011;57282;52.514;13.458;2023-03-01T03:09:28;11.13;;;6.18;;
69769;SDS011;57282;52.514;13.458;2023-03-01T03:11:55;10.65;;;6.13;;
69769;SDS011;57282;52.514;13.458;2023-03-01T03:14:21;11.50;;;6.50;;
69769;SDS011;57282;52.514;13.458;2023-03-01T03:16:49;12.15;;;5.97;;
69769;SDS011;57282;52.514;13.458;2023-03-01T03:19:16;12.17;;;5.77;;
69769;SDS011;57282;52.514;13.458;2023-03-01T03:21:44;10.52;;;5.72;;
69769;SDS011;57282;52.514;13.458;2023-03-01T03:24:11;10.32;;;5.50;;
69769;SDS011;57282;52.514;13.458;2023-03-01T03:26:37;10.63;;;5.75;;
69769;SDS011;57282;52.514;13.458;2023-03-01T03:29:04;11.25;;;5.75;;
69769;SDS011;57282;52.514;13.458;2023-03-01T03:31:30;10.83;;;6.20;;
69769;SDS011;57282;52.514;13.458;2023-03-01T03:33:57;8.95;;;4.90;;
69769;SDS011;57282;52.514;13.458;2023-03-01T03:36:27;10.50;;;5.35;;
69769;SDS011;57282;52.514;13.458;2023-03-01T03:38:55;9.75;;;4.88;;
69769;SDS011;57282;52.514;13.458;2023-03-01T03:41:21;10.55;;;5.65;;
69769;SDS011;57282;52.514;13.458;2023-03-01T03:43:48;11.63;;;5.93;;
69769;SDS011;57282;52.514;13.458;2023-03-01T03:46:15;10.60;;;5.95;;
69769;SDS011;57282;52.514;13.458;2023-03-01T03:48:43;10.73;;;5.68;;
69769;SDS011;57282;52.514;13.458;2023-03-01T03:51:10;11.43;;;5.97;;
69769;SDS011;57282;52.514;13.458;2023-03-01T03:53:37;10.38;;;6.07;;
69769;SDS011;57282;52.514;13.458;2023-03-01T03:56:06;11.17;;;5.90;;
69769;SDS011;57282;52.514;13.458;2023-03-01T03:58:32;10.82;;;5.68;;
69769;SDS011;57282;52.514;13.458;2023-03-01T04:00:59;11.60;;;6.25;;
69769;SDS011;57282;52.514;13.458;2023-03-01T04:03:27;10.95;;;5.60;;
69769;SDS011;57282;52.514;13.458;2023-03-01T04:05:54;10.57;;;5.53;;
69769;SDS011;57282;52.514;13.458;2023-03-01T04:08:23;10.57;;;5.47;;
69769;SDS011;57282;52.514;13.458;2023-03-01T04:10:50;11.35;;;6.20;;
69769;SDS011;57282;52.514;13.458;2023-03-01T04:13:19;11.55;;;6.03;;
69769;SDS011;57282;52.514;13.458;2023-03-01T04:15:47;11.00;;;5.03;;
69769;SDS011;57282;52.514;13.458;2023-03-01T04:18:15;10.52;;;5.40;;
69769;SDS011;57282;52.514;13.458;2023-03-01T04:20:41;9.53;;;5.70;;
69769;SDS011;57282;52.514;13.458;2023-03-01T04:23:10;10.13;;;5.28;;
69769;SDS011;57282;52.514;13.458;2023-03-01T04:25:39;8.65;;;4.93;;
69769;SDS011;57282;52.514;13.458;2023-03-01T04:28:05;10.32;;;5.55;;
69769;SDS011;57282;52.514;13.458;2023-03-01T04:30:34;9.95;;;5.03;;
69769;SDS011;57282;52.514;13.458;2023-03-01T04:33:01;9.40;;;4.90;;
69769;SDS011;57282;52.514;13.458;2023-03-01T04:35:28;10.13;;;5.22;;
69769;SDS011;57282;52.514;13.458;2023-03-01T04:37:55;11.13;;;5.53;;
69769;SDS011;57282;52.514;13.458;2023-03-01T04:40:21;10.80;;;5.55;;
69769;SDS011;57282;52.514;13.458;2023-03-01T04:42:48;9.07;;;4.60;;
69769;SDS011;57282;52.514;13.458;2023-03-01T04:45:14;11.03;;;5.47;;
69769;SDS011;57282;52.514;13.458;2023-03-01T04:47:43;9.45;;;5.07;;
69769;SDS011;57282;52.514;13.458;2023-03-01T04:50:11;9.77;;;5.70;;
69769;SDS011;57282;52.514;13.458;2023-03-01T04:52:38;11.48;;;5.68;;
69769;SDS011;57282;52.514;13.458;2023-03-01T04:55:05;10.57;;;4.80;;
69769;SDS011;57282;52.514;13.458;2023-03-01T04:57:32;8.80;;;4.80;;
69769;SDS011;57282;52.514;13.458;2023-03-01T04:59:58;9.57;;;4.82;;
69769;SDS011;57282;52.514;13.458;2023-03-01T05:02:25;9.98;;;4.88;;
69769;SDS011;57282;52.514;13.458;2023-03-01T05:04:53;10.70;;;5.10;;
69769;SDS011;57282;52.514;13.458;2023-03-01T05:07:22;10.23;;;5.30;;
69769;SDS011;57282;52.514;13.458;2023-03-01T05:09:49;10.43;;;5.67;;
69769;SDS011;57282;52.514;13.458;2023-03-01T05:12:16;10.07;;;5.35;;
69769;SDS011;57282;52.514;13.458;2023-03-01T05:14:42;9.80;;;5.40;;
69769;SDS011;57282;52.514;13.458;2023-03-01T05:17:09;11.07;;;5.15;;
69769;SDS011;57282;52.514;13.458;2023-03-01T05:19:35;9.68;;;5.47;;
69769;SDS011;57282;52.514;13.458;2023-03-01T05:22:03;9.17;;;5.13;;
69769;SDS011;57282;52.514;13.458;2023-03-01T05:24:30;8.80;;;5.15;;
69769;SDS011;57282;52.514;13.458;2023-03-01T05:26:57;9.50;;;4.85;;
69769;SDS011;57282;52.514;13.458;2023-03-01T05:29:24;9.35;;;4.97;;
69769;SDS011;57282;52.514;13.458;2023-03-01T05:31:51;10.00;;;4.97;;
69769;SDS011;57282;52.514;13.458;2023-03-01T05:34:18;8.83;;;5.00;;
69769;SDS011;57282;52.514;13.458;2023-03-01T05:36:48;8.38;;;4.68;;
69769;SDS011;57282;52.514;13.458;2023-03-01T05:39:17;9.63;;;4.88;;
69769;SDS011;57282;52.514;13.458;2023-03-01T05:41:44;10.68;;;5.20;;
69769;SDS011;57282;52.514;13.458;2023-03-01T05:44:10;9.73;;;5.05;;
69769;SDS011;57282;52.514;13.458;2023-03-01T05:46:37;10.10;;;4.80;;
69769;SDS011;57282;52.514;13.458;2023-03-01T05:49:04;9.90;;;5.10;;
69769;SDS011;57282;52.514;13.458;2023-03-01T05:51:30;9.07;;;4.65;;
69769;SDS011;57282;52.514;13.458;2023-03-01T05:53:58;8.63;;;5.30;;
69769;SDS011;57282;52.514;13.458;2023-03-01T05:56:31;7.90;;;4.30;;
69769;SDS011;57282;52.514;13.458;2023-03-01T05:58:58;9.03;;;4.37;;
69769;SDS011;57282;52.514;13.458;2023-03-01T06:01:24;9.65;;;5.28;;
69769;SDS011;57282;52.514;13.458;2023-03-01T06:03:51;9.70;;;4.65;;
69769;SDS011;57282;52.514;13.458;2023-03-01T06:06:17;8.52;;;4.93;;
69769;SDS011;57282;52.514;13.458;2023-03-01T06:08:44;10.55;;;5.20;;
69769;SDS011;57282;52.514;13.458;2023-03-01T06:11:11;9.00;;;4.87;;
69769;SDS011;57282;52.514;13.458;2023-03-01T06:13:39;9.65;;;4.72;;
69769;SDS011;57282;52.514;13.458;2023-03-01T06:16:05;7.97;;;4.63;;
69769;SDS011;57282;52.514;13.458;2023-03-01T06:18:32;9.73;;;5.70;;
69769;SDS011;57282;52.514;13.458;2023-03-01T06:20:58;9.25;;;4.82;;
69769;SDS011;57282;52.514;13.458;2023-03-01T06:23:25;8.67;;;5.03;;
69769;SDS011;57282;52.514;13.458;2023-03-01T06:25:51;8.88;;;4.72;;
69769;SDS011;57282;52.514;13.458;2023-03-01T06:28:18;9.45;;;5.35;;
69769;SDS011;57282;52.514;13.458;2023-03-01T06:30:46;8.70;;;5.50;;
69769;SDS011;57282;52.514;13.458;2023-03-01T06:33:13;9.18;;;4.78;;
69769;SDS011;57282;52.514;13.458;2023-03-01T06:35:40;8.47;;;5.40;;
69769;SDS011;57282;52.514;13.458;2023-03-01T06:38:07;8.07;;;4.30;;
69769;SDS011;57282;52.514;13.458;2023-03-01T06:40:33;9.43;;;4.70;;
69769;SDS011;57282;52.514;13.458;2023-03-01T06:43:01;8.88;;;4.78;;
69769;SDS011;57282;52.514;13.458;2023-03-01T06:45:27;10.38;;;4.63;;
69769;SDS011;57282;52.514;13.458;2023-03-01T06:48:02;9.90;;;5.50;;
69769;SDS011;57282;52.514;13.458;2023-03-01T06:50:29;10.68;;;5.72;;
69769;SDS011;57282;52.514;13.458;2023-03-01T06:52:56;10.20;;;5.32;;
69769;SDS011;57282;52.514;13.458;2023-03-01T06:55:23;8.35;;;4.65;;
69769;SDS011;57282;52.514;13.458;2023-03-01T06:57:53;9.38;;;4.72;;
69769;SDS011;57282;52.514;13.458;2023-03-01T07:00:20;8.30;;;5.10;;
69769;SDS011;57282;52.514;13.458;2023-03-01T07:02:47;9.15;;;4.47;;
69769;SDS011;57282;52.514;13.458;2023-03-01T07:05:15;10.55;;;5.30;;
69769;SDS011;57282;52.514;13.458;2023-03-01T07:07:41;23.13;;;6.25;;
69769;SDS011;57282;52.514;13.458;2023-03-01T07:10:09;31.58;;;15.93;;
69769;SDS011;57282;52.514;13.458;2023-03-01T07:12:38;31.90;;;16.27;;
69769;SDS011;57282;52.514;13.458;2023-03-01T07:15:07;28.75;;;15.75;;
69769;SDS011;57282;52.514;13.458;2023-03-01T07:17:34;29.17;;;14.68;;
69769;SDS011;57282;52.514;13.458;2023-03-01T07:20:01;34.08;;;13.98;;
69769;SDS011;57282;52.514;13.458;2023-03-01T07:22:29;25.77;;;13.10;;
69769;SDS011;57282;52.514;13.458;2023-03-01T07:24:55;22.80;;;10.97;;
69769;SDS011;57282;52.514;13.458;2023-03-01T07:27:22;25.75;;;11.25;;
69769;SDS011;57282;52.514;13.458;2023-03-01T07:29:48;21.80;;;10.95;;
69769;SDS011;57282;52.514;13.458;2023-03-01T07:32:15;22.30;;;11.23;;
69769;SDS011;57282;52.514;13.458;2023-03-01T07:34:42;23.45;;;11.30;;
69769;SDS011;57282;52.514;13.458;2023-03-01T07:37:08;22.40;;;12.30;;
69769;SDS011;57282;52.514;13.458;2023-03-01T07:39:36;20.85;;;11.85;;
69769;SDS011;57282;52.514;13.458;2023-03-01T07:42:02;21.67;;;11.23;;
69769;SDS011;57282;52.514;13.458;2023-03-01T07:44:29;24.42;;;11.50;;
69769;SDS011;57282;52.514;13.458;2023-03-01T07:46:55;23.35;;;11.82;;
69769;SDS011;57282;52.514;13.458;2023-03-01T07:49:23;20.07;;;10.73;;
69769;SDS011;57282;52.514;13.458;2023-03-01T07:51:51;34.53;;;12.95;;
69769;SDS011;57282;52.514;13.458;2023-03-01T07:54:18;24.90;;;12.80;;
69769;SDS011;57282;52.514;13.458;2023-03-01T07:56:49;24.75;;;12.93;;
69769;SDS011;57282;52.514;13.458;2023-03-01T07:59:19;25.20;;;12.52;;
69769;SDS011;57282;52.514;13.458;2023-03-01T08:01:46;23.27;;;12.27;;
69769;SDS011;57282;52.514;13.458;2023-03-01T08:04:12;20.55;;;11.10;;
69769;SDS011;57282;52.514;13.458;2023-03-01T08:06:39;19.88;;;10.35;;
69769;SDS011;57282;52.514;13.458;2023-03-01T08:09:05;25.48;;;11.15;;
69769;SDS011;57282;52.514;13.458;2023-03-01T08:11:32;21.48;;;10.65;;
69769;SDS011;57282;52.514;13.458;2023-03-01T08:14:00;20.13;;;11.30;;
69769;SDS011;57282;52.514;13.458;2023-03-01T08:16:28;21.10;;;10.65;;
69769;SDS011;57282;52.514;13.458;2023-03-01T08:18:54;18.27;;;9.38;;
69769;SDS011;57282;52.514;13.458;2023-03-01T08:21:22;21.35;;;10.57;;
69769;SDS011;57282;52.514;13.458;2023-03-01T08:23:52;14.73;;;8.23;;
69769;SDS011;57282;52.514;13.458;2023-03-01T08:26:20;18.67;;;8.80;;
69769;SDS011;57282;52.514;13.458;2023-03-01T08:28:47;21.10;;;10.13;;
69769;SDS011;57282;52.514;13.458;2023-03-01T08:31:17;23.15;;;9.50;;
69769;SDS011;57282;52.514;13.458;2023-03-01T08:33:44;19.20;;;9.48;;
69769;SDS011;57282;52.514;13.458;2023-03-01T08:36:15;16.42;;;8.93;;
69769;SDS011;57282;52.514;13.458;2023-03-01T08:38:42;18.67;;;8.70;;
69769;SDS011;57282;52.514;13.458;2023-03-01T08:41:08;17.98;;;8.95;;
69769;SDS011;57282;52.514;13.458;2023-03-01T08:43:35;16.75;;;8.93;;
69769;SDS011;57282;52.514;13.458;2023-03-01T08:46:01;20.70;;;8.85;;
69769;SDS011;57282;52.514;13.458;2023-03-01T08:48:29;17.17;;;9.23;;
69769;SDS011;57282;52.514;13.458;2023-03-01T08:50:56;16.93;;;8.70;;
69769;SDS011;57282;52.514;13.458;2023-03-01T08:53:22;16.75;;;8.93;;
69769;SDS011;57282;52.514;13.458;2023-03-01T08:55:49;15.55;;;8.48;;
69769;SDS011;57282;52.514;13.458;2023-03-01T08:58:15;22.60;;;8.93;;
69769;SDS011;57282;52.514;13.458;2023-03-01T09:00:42;17.83;;;8.93;;
69769;SDS011;57282;52.514;13.458;2023-03-01T09:03:08;19.63;;;8.73;;
69769;SDS011;57282;52.514;13.458;2023-03-01T09:05:36;17.70;;;9.20;;
69769;SDS011;57282;52.514;13.458;2023-03-01T09:08:03;15.05;;;7.97;;
69769;SDS011;57282;52.514;13.458;2023-03-01T09:10:31;16.02;;;8.68;;
69769;SDS011;57282;52.514;13.458;2023-03-01T09:12:57;16.80;;;8.40;;
69769;SDS011;57282;52.514;13.458;2023-03-01T09:15:24;14.73;;;8.07;;
69769;SDS011;57282;52.514;13.458;2023-03-01T09:17:51;14.15;;;8.05;;
69769;SDS011;57282;52.514;13.458;2023-03-01T09:20:17;15.80;;;8.43;;
69769;SDS011;57282;52.514;13.458;2023-03-01T09:22:45;17.30;;;8.40;;
69769;SDS011;57282;52.514;13.458;2023-03-01T09:25:12;16.13;;;9.13;;
69769;SDS011;57282;52.514;13.458;2023-03-01T09:27:38;14.70;;;7.77;;
69769;SDS011;57282;52.514;13.458;2023-03-01T09:30:05;17.00;;;8.45;;
69769;SDS011;57282;52.514;13.458;2023-03-01T09:32:32;21.30;;;10.80;;
69769;SDS011;57282;52.514;13.458;2023-03-01T09:34:58;23.60;;;10.80;;
69769;SDS011;57282;52.514;13.458;2023-03-01T09:37:29;29.27;;;12.40;;
69769;SDS011;57282;52.514;13.458;2023-03-01T09:39:57;28.13;;;11.97;;
69769;SDS011;57282;52.514;13.458;2023-03-01T09:42:24;24.55;;;11.57;;
69769;SDS011;57282;52.514;13.458;2023-03-01T09:44:51;26.13;;;11.43;;
69769;SDS011;57282;52.514;13.458;2023-03-01T09:47:20;24.52;;;11.95;;
69769;SDS011;57282;52.514;13.458;2023-03-01T09:49:49;24.30;;;11.07;;
69769;SDS011;57282;52.514;13.458;2023-03-01T09:52:19;23.97;;;11.20;;
69769;SDS011;57282;52.514;13.458;2023-03-01T09:54:48;26.17;;;11.73;;
69769;SDS011;57282;52.514;13.458;2023-03-01T09:57:19;23.92;;;10.57;;
69769;SDS011;57282;52.514;13.458;2023-03-01T09:59:57;24.10;;;10.43;;
69769;SDS011;57282;52.514;13.458;2023-03-01T10:02:30;22.50;;;10.43;;
69769;SDS011;57282;52.514;13.458;2023-03-01T10:05:05;21.80;;;10.13;;
69769;SDS011;57282;52.514;13.458;2023-03-01T10:07:36;35.70;;;10.27;;
69769;SDS011;57282;52.514;13.458;2023-03-01T10:10:05;25.77;;;12.05;;
69769;SDS011;57282;52.514;13.458;2023-03-01T10:12:34;19.65;;;9.18;;
69769;SDS011;57282;52.514;13.458;2023-03-01T10:15:03;21.17;;;9.50;;
69769;SDS011;57282;52.514;13.458;2023-03-01T10:17:31;19.77;;;9.63;;
69769;SDS011;57282;52.514;13.458;2023-03-01T10:20:09;21.45;;;9.55;;
69769;SDS011;57282;52.514;13.458;2023-03-01T10:22:36;20.20;;;9.27;;
69769;SDS011;57282;52.514;13.458;2023-03-01T10:25:03;16.65;;;9.55;;
69769;SDS011;57282;52.514;13.458;2023-03-01T10:27:33;20.00;;;10.38;;
69769;SDS011;57282;52.514;13.458;2023-03-01T10:30:05;23.00;;;9.70;;
69769;SDS011;57282;52.514;13.458;2023-03-01T10:32:36;19.65;;;9.38;;
69769;SDS011;57282;52.514;13.458;2023-03-01T10:35:14;20.20;;;9.73;;
69769;SDS011;57282;52.514;13.458;2023-03-01T10:37:46;21.10;;;9.40;;
69769;SDS011;57282;52.514;13.458;2023-03-01T10:40:22;23.17;;;9.55;;
69769;SDS011;57282;52.514;13.458;2023-03-01T10:42:48;17.23;;;8.73;;
69769;SDS011;57282;52.514;13.458;2023-03-01T10:45:23;19.05;;;9.13;;
69769;SDS011;57282;52.514;13.458;2023-03-01T10:48:02;19.60;;;9.75;;
69769;SDS011;57282;52.514;13.458;2023-03-01T10:50:29;18.98;;;9.40;;
69769;SDS011;57282;52.514;13.458;2023-03-01T10:52:56;18.63;;;8.73;;
69769;SDS011;57282;52.514;13.458;2023-03-01T10:55:24;18.73;;;8.67;;
69769;SDS011;57282;52.514;13.458;2023-03-01T10:58:05;21.90;;;9.63;;
69769;SDS011;57282;52.514;13.458;2023-03-01T11:00:34;20.63;;;9.45;;
69769;SDS011;57282;52.514;13.458;2023-03-01T11:03:11;21.35;;;10.18;;
69769;SDS011;57282;52.514;13.458;2023-03-01T11:05:49;21.10;;;10.63;;
69769;SDS011;57282;52.514;13.458;2023-03-01T11:08:26;19.43;;;9.53;;
69769;SDS011;57282;52.514;13.458;2023-03-01T11:11:02;32.97;;;11.02;;
69769;SDS011;57282;52.514;13.458;2023-03-01T11:13:29;21.23;;;9.88;;
69769;SDS011;57282;52.514;13.458;2023-03-01T11:16:00;24.92;;;10.23;;
69769;SDS011;57282;52.514;13.458;2023-03-01T11:18:27;26.48;;;11.88;;
69769;SDS011;57282;52.514;13.458;2023-03-01T11:20:54;26.93;;;11.83;;
69769;SDS011;57282;52.514;13.458;2023-03-01T11:23:21;22.75;;;11.63;;
69769;SDS011;57282;52.514;13.458;2023-03-01T11:25:49;25.30;;;11.32;;
69769;SDS011;57282;52.514;13.458;2023-03-01T11:28:17;25.85;;;12.20;;
69769;SDS011;57282;52.514;13.458;2023-03-01T11:30:47;26.45;;;13.50;;
69769;SDS011;57282;52.514;13.458;2023-03-01T11:33:17;28.40;;;12.43;;
69769;SDS011;57282;52.514;13.458;2023-03-01T11:35:47;26.42;;;12.13;;
69769;SDS011;57282;52.514;13.458;2023-03-01T11:38:16;26.50;;;14.07;;
69769;SDS011;57282;52.514;13.458;2023-03-01T11:40:46;29.85;;;12.93;;
69769;SDS011;57282;52.514;13.458;2023-03-01T11:43:18;29.90;;;13.07;;
69769;SDS011;57282;52.514;13.458;2023-03-01T11:46:06;29.43;;;14.43;;
69769;SDS011;57282;52.514;13.458;2023-03-01T11:48:50;28.08;;;12.93;;
69769;SDS011;57282;52.514;13.458;2023-03-01T11:51:21;30.02;;;13.60;;
69769;SDS011;57282;52.514;13.458;2023-03-01T11:53:51;26.40;;;13.15;;
69769;SDS011;57282;52.514;13.458;2023-03-01T11:56:22;26.70;;;12.77;;
69769;SDS011;57282;52.514;13.458;2023-03-01T11:58:54;30.57;;;14.30;;
69769;SDS011;57282;52.514;13.458;2023-03-01T12:01:28;29.20;;;12.90;;
69769;SDS011;57282;52.514;13.458;2023-03-01T12:06:45;29.52;;;13.63;;
69769;SDS011;57282;52.514;13.458;2023-03-01T12:09:19;29.52;;;13.98;;
69769;SDS011;57282;52.514;13.458;2023-03-01T12:11:55;29.47;;;14.13;;
69769;SDS011;57282;52.514;13.458;2023-03-01T12:14:32;29.20;;;13.13;;
69769;SDS011;57282;52.514;13.458;2023-03-01T12:17:11;120.50;;;16.50;;
69769;SDS011;57282;52.514;13.458;2023-03-01T12:19:46;40.53;;;17.33;;
69769;SDS011;57282;52.514;13.458;2023-03-01T12:22:24;32.92;;;15.30;;
69769;SDS011;57282;52.514;13.458;2023-03-01T12:25:01;33.50;;;16.80;;
69769;SDS011;57282;52.514;13.458;2023-03-01T12:27:36;32.95;;;16.48;;
69769;SDS011;57282;52.514;13.458;2023-03-01T12:30:10;38.47;;;16.65;;
69769;SDS011;57282;52.514;13.458;2023-03-01T12:32:45;33.65;;;15.25;;
69769;SDS011;57282;52.514;13.458;2023-03-01T12:35:21;75.25;;;17.90;;
69769;SDS011;57282;52.514;13.458;2023-03-01T12:37:55;40.33;;;18.27;;
69769;SDS011;57282;52.514;13.458;2023-03-01T12:40:32;36.97;;;17.55;;
69769;SDS011;57282;52.514;13.458;2023-03-01T12:43:04;37.35;;;17.27;;
69769;SDS011;57282;52.514;13.458;2023-03-01T12:45:35;35.75;;;17.52;;
69769;SDS011;57282;52.514;13.458;2023-03-01T12:48:10;46.90;;;17.50;;
69769;SDS011;57282;52.514;13.458;2023-03-01T12:50:42;36.70;;;18.20;;
69769;SDS011;57282;52.514;13.458;2023-03-01T12:53:16;50.65;;;19.02;;
69769;SDS011;57282;52.514;13.458;2023-03-01T12:55:45;36.03;;;17.52;;
69769;SDS011;57282;52.514;13.458;2023-03-01T12:58:15;43.00;;;18.63;;
69769;SDS011;57282;52.514;13.458;2023-03-01T13:00:49;35.35;;;16.85;;
69769;SDS011;57282;52.514;13.458;2023-03-01T13:03:20;38.20;;;18.50;;
69769;SDS011;57282;52.514;13.458;2023-03-01T13:05:54;40.53;;;18.90;;
69769;SDS011;57282;52.514;13.458;2023-03-01T13:08:25;38.80;;;18.45;;
69769;SDS011;57282;52.514;13.458;2023-03-01T13:10:54;39.58;;;17.77;;
69769;SDS011;57282;52.514;13.458;2023-03-01T13:13:23;36.25;;;18.05;;
69769;SDS011;57282;52.514;13.458;2023-03-01T13:15:50;36.07;;;17.53;;
69769;SDS011;57282;52.514;13.458;2023-03-01T13:21:02;34.55;;;16.17;;
69769;SDS011;57282;52.514;13.458;2023-03-01T13:23:33;34.05;;;16.05;;
69769;SDS011;57282;52.514;13.458;2023-03-01T13:26:04;35.38;;;17.17;;
69769;SDS011;57282;52.514;13.458;2023-03-01T13:37:24;36.22;;;16.55;;
69769;SDS011;57282;52.514;13.458;2023-03-01T13:39:56;34.47;;;15.48;;
69769;SDS011;57282;52.514;13.458;2023-03-01T13:42:42;30.93;;;15.73;;
69769;SDS011;57282;52.514;13.458;2023-03-01T13:45:16;35.00;;;16.08;;
69769;SDS011;57282;52.514;13.458;2023-03-01T13:47:43;38.17;;;15.73;;
69769;SDS011;57282;52.514;13.458;2023-03-01T13:50:16;37.85;;;16.05;;
69769;SDS011;57282;52.514;13.458;2023-03-01T13:52:44;33.95;;;15.05;;
69769;SDS011;57282;52.514;13.458;2023-03-01T13:55:18;30.40;;;14.73;;
69769;SDS011;57282;52.514;13.458;2023-03-01T13:57:46;34.03;;;16.20;;
69769;SDS011;57282;52.514;13.458;2023-03-01T14:03:04;30.65;;;16.10;;
69769;SDS011;57282;52.514;13.458;2023-03-01T14:05:32;35.08;;;16.63;;
69769;SDS011;57282;52.514;13.458;2023-03-01T14:07:59;35.03;;;17.07;;
69769;SDS011;57282;52.514;13.458;2023-03-01T14:10:28;35.20;;;16.00;;
69769;SDS011;57282;52.514;13.458;2023-03-01T14:12:58;31.85;;;15.85;;
69769;SDS011;57282;52.514;13.458;2023-03-01T14:15:28;30.75;;;14.95;;
69769;SDS011;57282;52.514;13.458;2023-03-01T14:17:59;34.05;;;14.13;;
69769;SDS011;57282;52.514;13.458;2023-03-01T14:20:30;28.53;;;14.07;;
69769;SDS011;57282;52.514;13.458;2023-03-01T14:22:58;29.73;;;15.07;;
69769;SDS011;57282;52.514;13.458;2023-03-01T14:25:27;29.58;;;14.73;;
69769;SDS011;57282;52.514;13.458;2023-03-01T14:27:58;29.23;;;15.07;;
69769;SDS011;57282;52.514;13.458;2023-03-01T14:30:26;29.17;;;14.50;;
69769;SDS011;57282;52.514;13.458;2023-03-01T14:32:54;28.40;;;13.70;;
69769;SDS011;57282;52.514;13.458;2023-03-01T14:35:22;33.75;;;15.20;;
69769;SDS011;57282;52.514;13.458;2023-03-01T14:37:49;29.77;;;14.45;;
69769;SDS011;57282;52.514;13.458;2023-03-01T14:40:23;30.02;;;14.57;;
69769;SDS011;57282;52.514;13.458;2023-03-01T14:42:51;33.47;;;14.13;;
69769;SDS011;57282;52.514;13.458;2023-03-01T14:45:18;34.63;;;14.00;;
69769;SDS011;57282;52.514;13.458;2023-03-01T14:47:45;30.65;;;14.00;;